Time;durP1;ratioP1;P1;durP2;ratioP2;P2;SDS_P1;SDS_P2;PMS_P1;PMS_P2;Temp;Humidity;BMP_temperature;BMP_pressure;BME280_temperature;BME280_humidity;BME280_pressure;Samples;Min_cycle;Max_cycle;Signal;HPM_P1;HPM_P2
2023/09/15 00:02:48;;;;;;;0.00;0.00;;;18.10;99.90;;;;;;5010834;28;20045;-84
2023/09/15 00:05:15;;;;;;;1.73;1.58;;;17.70;99.90;;;;;;5010444;28;20034;-83
2023/09/15 00:07:41;;;;;;;0.00;0.00;;;17.60;99.90;;;;;;5010703;28;20494;-78
2023/09/15 00:10:07;;;;;;;0.00;0.00;;;17.60;99.90;;;;;;5010695;28;20026;-77
2023/09/15 00:12:34;;;;;;;0.00;0.00;;;17.80;99.90;;;;;;5010667;28;20034;-84
2023/09/15 00:15:07;;;;;;;0.00;0.00;;;18.10;99.90;;;;;;5010627;28;20033;-84
2023/09/15 00:17:37;;;;;;;0.00;0.00;;;17.90;99.90;;;;;;5005524;28;20046;-84
2023/09/15 00:20:09;;;;;;;0.00;0.00;;;17.60;99.90;;;;;;4991898;28;20033;-84
2023/09/15 00:22:35;;;;;;;0.00;0.00;;;17.70;99.90;;;;;;4991000;28;20073;-83
2023/09/15 00:25:01;;;;;;;0.00;0.00;;;17.70;99.90;;;;;;5007895;28;20077;-84
2023/09/15 00:27:27;;;;;;;0.00;0.00;;;17.70;99.90;;;;;;5010084;28;20033;-84
2023/09/15 00:29:53;;;;;;;0.00;0.00;;;17.60;99.90;;;;;;5009118;28;20379;-84
2023/09/15 00:32:22;;;;;;;0.00;0.00;;;17.60;99.90;;;;;;5010192;28;20026;-83
2023/09/15 00:34:48;;;;;;;0.00;0.00;;;17.70;99.90;;;;;;5010187;28;20419;-84
2023/09/15 00:37:14;;;;;;;0.00;0.00;;;17.60;99.90;;;;;;5010286;28;20112;-84
2023/09/15 00:39:41;;;;;;;0.00;0.00;;;17.60;99.90;;;;;;5010560;28;20024;-85
2023/09/15 00:42:06;;;;;;;0.00;0.00;;;17.30;99.90;;;;;;5010324;28;20390;-83
2023/09/15 00:44:34;;;;;;;0.00;0.00;;;17.30;99.90;;;;;;5009266;28;20416;-85
2023/09/15 00:47:03;;;;;;;0.00;0.00;;;17.30;99.90;;;;;;5010032;28;20029;-84
2023/09/15 00:49:29;;;;;;;0.00;0.00;;;17.20;99.90;;;;;;5010003;28;20390;-84
2023/09/15 00:51:55;;;;;;;0.00;0.00;;;17.40;99.90;;;;;;5008810;28;20026;-83
2023/09/15 00:54:20;;;;;;;0.00;0.00;;;17.60;99.90;;;;;;5010143;28;20026;-83
2023/09/15 00:56:48;;;;;;;0.00;0.00;;;17.40;99.90;;;;;;5008906;28;20095;-83
2023/09/15 00:59:14;;;;;;;0.05;0.05;;;17.50;99.90;;;;;;5005268;28;20022;-83
2023/09/15 01:01:42;;;;;;;0.10;0.10;;;17.60;99.90;;;;;;5004260;28;20112;-85
2023/09/15 01:04:09;;;;;;;0.40;0.40;;;17.50;99.90;;;;;;5008746;28;20022;-80
2023/09/15 01:06:38;;;;;;;0.40;0.40;;;17.30;99.90;;;;;;5013685;28;20116;-85
2023/09/15 01:09:05;;;;;;;0.00;0.00;;;17.50;99.90;;;;;;5013467;28;20022;-81
2023/09/15 01:11:34;;;;;;;0.00;0.00;;;17.60;99.90;;;;;;5013532;28;20386;-85
2023/09/15 01:14:00;;;;;;;0.00;0.00;;;17.40;99.90;;;;;;5011972;28;20022;-79
2023/09/15 01:16:46;;;;;;;0.00;0.00;;;17.40;99.90;;;;;;5012633;28;20067;-84
2023/09/15 01:19:53;;;;;;;0.00;0.00;;;17.40;99.90;;;;;;5013058;28;20056;-84
2023/09/15 01:22:47;;;;;;;0.20;0.20;;;17.30;99.90;;;;;;5012196;28;20162;-84
2023/09/15 01:25:22;;;;;;;0.00;0.00;;;17.10;99.90;;;;;;5013429;28;20083;-85
2023/09/15 01:28:04;;;;;;;0.00;0.00;;;17.00;99.90;;;;;;5011907;28;20026;-82
2023/09/15 01:30:31;;;;;;;0.00;0.00;;;17.00;99.90;;;;;;5013308;28;20407;-84
2023/09/15 01:32:59;;;;;;;0.00;0.00;;;17.00;99.90;;;;;;5011338;28;20367;-84
2023/09/15 01:35:25;;;;;;;0.08;0.08;;;16.90;99.90;;;;;;5011794;28;20057;-79
2023/09/15 01:37:51;;;;;;;0.00;0.00;;;16.80;99.90;;;;;;5012997;28;20069;-84
2023/09/15 01:40:17;;;;;;;0.28;0.28;;;16.40;99.90;;;;;;5013219;28;20107;-84
2023/09/15 01:42:46;;;;;;;0.00;0.00;;;16.20;99.90;;;;;;5013240;28;20073;-84
2023/09/15 01:45:12;;;;;;;0.00;0.00;;;16.20;99.90;;;;;;5011625;28;20130;-84
2023/09/15 01:47:39;;;;;;;0.00;0.00;;;16.00;99.90;;;;;;5012858;28;20101;-83
2023/09/15 01:50:07;;;;;;;0.00;0.00;;;16.40;99.90;;;;;;5011377;28;20029;-84
2023/09/15 01:52:33;;;;;;;0.00;0.00;;;16.50;99.90;;;;;;5013114;28;20383;-84
2023/09/15 01:55:02;;;;;;;0.00;0.00;;;16.60;99.90;;;;;;5011231;28;20018;-84
2023/09/15 01:57:29;;;;;;;0.08;0.08;;;16.60;99.90;;;;;;5011657;28;20048;-82
2023/09/15 01:59:58;;;;;;;0.10;0.10;;;16.60;99.90;;;;;;4994720;28;20504;-84
2023/09/15 02:02:24;;;;;;;0.00;0.00;;;16.70;99.90;;;;;;5011182;28;20375;-84
2023/09/15 02:04:50;;;;;;;0.10;0.10;;;16.60;99.90;;;;;;5012600;28;20037;-83
2023/09/15 02:07:15;;;;;;;0.00;0.00;;;16.60;99.90;;;;;;5011212;28;20486;-83
2023/09/15 02:09:41;;;;;;;0.00;0.00;;;16.50;99.90;;;;;;5011210;28;20014;-84
2023/09/15 02:12:07;;;;;;;0.10;0.10;;;16.60;99.90;;;;;;5012674;28;20025;-84
2023/09/15 02:14:34;;;;;;;0.00;0.00;;;16.50;99.90;;;;;;5011340;28;20071;-83
2023/09/15 02:17:01;;;;;;;0.00;0.00;;;16.40;99.90;;;;;;5011490;28;20034;-83
2023/09/15 02:19:27;;;;;;;0.30;0.30;;;16.40;99.90;;;;;;5012177;28;20030;-83
2023/09/15 02:21:53;;;;;;;0.00;0.00;;;16.30;99.90;;;;;;5011127;28;20057;-84
2023/09/15 02:24:19;;;;;;;0.00;0.00;;;16.20;99.90;;;;;;5010913;28;20475;-83
2023/09/15 02:26:45;;;;;;;0.00;0.00;;;16.10;99.90;;;;;;5012315;28;20041;-84
2023/09/15 02:29:11;;;;;;;0.00;0.00;;;16.10;99.90;;;;;;5010981;28;20478;-83
2023/09/15 02:31:38;;;;;;;0.55;0.55;;;16.10;99.90;;;;;;5011085;28;20033;-84
2023/09/15 02:34:04;;;;;;;2.53;1.20;;;16.30;99.90;;;;;;5007457;28;20026;-82
2023/09/15 02:36:31;;;;;;;0.00;0.00;;;16.30;99.90;;;;;;5010871;28;20053;-84
2023/09/15 02:38:57;;;;;;;0.00;0.00;;;16.40;99.90;;;;;;5010997;28;20476;-80
2023/09/15 02:41:22;;;;;;;0.00;0.00;;;16.20;99.90;;;;;;5010596;28;20021;-84
2023/09/15 02:43:48;;;;;;;0.00;0.00;;;16.40;99.90;;;;;;5010926;28;20492;-83
2023/09/15 02:46:15;;;;;;;0.00;0.00;;;16.40;99.90;;;;;;5010157;28;20030;-83
2023/09/15 02:48:44;;;;;;;0.00;0.00;;;16.40;99.90;;;;;;4994711;28;20041;-83
2023/09/15 02:51:11;;;;;;;0.00;0.00;;;16.40;99.90;;;;;;5010503;28;20478;-84
2023/09/15 02:53:40;;;;;;;0.00;0.00;;;16.30;99.90;;;;;;5010674;28;20033;-83
2023/09/15 02:56:06;;;;;;;7.55;1.13;;;16.20;99.90;;;;;;5010499;28;20091;-83
2023/09/15 02:58:35;;;;;;;0.30;0.30;;;16.00;99.90;;;;;;5011820;28;20466;-82
2023/09/15 03:01:15;;;;;;;0.00;0.00;;;15.90;99.90;;;;;;5009866;28;20468;-82
2023/09/15 03:03:43;;;;;;;0.10;0.10;;;16.10;99.90;;;;;;5010520;28;20053;-83
2023/09/15 03:06:11;;;;;;;0.10;0.10;;;16.10;99.90;;;;;;5010315;28;20034;-79
2023/09/15 03:08:37;;;;;;;0.10;0.10;;;16.00;99.90;;;;;;5010211;28;20083;-82
2023/09/15 03:11:03;;;;;;;0.20;0.20;;;15.90;99.90;;;;;;5010468;28;20424;-83
2023/09/15 03:13:29;;;;;;;0.00;0.00;;;15.80;99.90;;;;;;5011385;28;20054;-82
2023/09/15 03:16:06;;;;;;;3.63;2.28;;;15.90;99.90;;;;;;5011603;28;20037;-83
2023/09/15 03:18:32;;;;;;;0.65;0.65;;;15.90;99.90;;;;;;4993966;28;20048;-83
2023/09/15 03:21:01;;;;;;;1.80;1.70;;;15.90;99.90;;;;;;5010216;28;20013;-83
2023/09/15 03:23:27;;;;;;;0.00;0.00;;;15.90;99.90;;;;;;5010128;28;20038;-82
2023/09/15 03:26:04;;;;;;;0.00;0.00;;;15.90;99.90;;;;;;5010155;28;20107;-83
2023/09/15 03:28:34;;;;;;;0.00;0.00;;;15.90;99.90;;;;;;5008626;28;20117;-74
2023/09/15 03:31:01;;;;;;;0.00;0.00;;;16.00;99.90;;;;;;5010305;28;20032;-81
2023/09/15 03:33:27;;;;;;;0.00;0.00;;;16.00;99.90;;;;;;5009930;28;20061;-83
2023/09/15 03:35:53;;;;;;;0.00;0.00;;;15.90;99.90;;;;;;5009907;28;20446;-83
2023/09/15 03:38:18;;;;;;;0.00;0.00;;;15.80;99.90;;;;;;5010092;28;20057;-83
2023/09/15 03:40:44;;;;;;;0.10;0.10;;;15.90;99.90;;;;;;5011695;28;20022;-83
2023/09/15 03:43:10;;;;;;;0.10;0.10;;;15.70;99.90;;;;;;5010419;28;20029;-82
2023/09/15 03:45:36;;;;;;;0.05;0.05;;;15.70;99.90;;;;;;5012007;28;20371;-83
2023/09/15 03:48:04;;;;;;;0.00;0.00;;;15.60;99.90;;;;;;5011000;28;20044;-83
2023/09/15 03:50:32;;;;;;;0.00;0.00;;;15.60;99.90;;;;;;5010639;28;20493;-83
2023/09/15 03:52:58;;;;;;;0.03;0.03;;;15.70;99.90;;;;;;4993222;28;20033;-83
2023/09/15 03:55:23;;;;;;;0.00;0.00;;;15.50;99.90;;;;;;5009701;28;20026;-79
2023/09/15 03:57:51;;;;;;;0.10;0.10;;;15.50;99.90;;;;;;5009117;28;20036;-83
2023/09/15 04:00:17;;;;;;;0.03;0.03;;;15.70;99.90;;;;;;5009514;28;20124;-83
2023/09/15 04:02:46;;;;;;;0.00;0.00;;;15.70;99.90;;;;;;5009493;28;20030;-83
2023/09/15 04:05:12;;;;;;;0.10;0.10;;;15.50;99.90;;;;;;5009526;28;20026;-83
2023/09/15 04:07:38;;;;;;;0.00;0.00;;;15.60;99.90;;;;;;5009411;28;20128;-83
2023/09/15 04:10:05;;;;;;;0.00;0.00;;;15.60;99.90;;;;;;5009339;28;20057;-83
2023/09/15 04:12:32;;;;;;;0.00;0.00;;;15.60;99.90;;;;;;5009148;28;20042;-84
2023/09/15 04:14:59;;;;;;;0.10;0.10;;;15.40;99.90;;;;;;5010752;28;20053;-84
2023/09/15 04:17:25;;;;;;;0.10;0.10;;;15.40;99.90;;;;;;5009860;28;20026;-83
2023/09/15 04:19:51;;;;;;;0.10;0.10;;;15.40;99.90;;;;;;5009565;28;20041;-83
2023/09/15 04:22:17;;;;;;;0.00;0.00;;;15.40;99.90;;;;;;5010077;28;20106;-82
2023/09/15 04:24:43;;;;;;;0.00;0.00;;;15.50;99.90;;;;;;5009504;28;20022;-84
2023/09/15 04:27:08;;;;;;;0.10;0.10;;;15.30;99.90;;;;;;5008629;28;20405;-82
2023/09/15 04:29:49;;;;;;;0.00;0.00;;;15.30;99.90;;;;;;5015640;28;20052;-83
2023/09/15 04:32:15;;;;;;;0.10;0.10;;;15.30;99.90;;;;;;4996075;28;20740;-84
2023/09/15 04:34:41;;;;;;;0.00;0.00;;;15.20;99.90;;;;;;5008939;28;20036;-83
2023/09/15 04:37:07;;;;;;;0.43;0.43;;;15.20;99.90;;;;;;5010256;28;20542;-84
2023/09/15 04:39:33;;;;;;;0.40;0.40;;;15.10;99.90;;;;;;4992319;28;20121;-83
2023/09/15 04:41:59;;;;;;;0.10;0.10;;;15.00;99.90;;;;;;5008665;28;20030;-83
2023/09/15 04:44:25;;;;;;;0.10;0.10;;;15.10;99.90;;;;;;5010235;28;20026;-84
2023/09/15 04:46:51;;;;;;;0.10;0.10;;;15.10;99.90;;;;;;5009089;28;20038;-78
2023/09/15 04:49:16;;;;;;;0.00;0.00;;;15.10;99.90;;;;;;4992530;28;20112;-82
2023/09/15 04:51:42;;;;;;;0.98;0.98;;;15.20;99.90;;;;;;5008690;28;20171;-83
2023/09/15 04:54:08;;;;;;;0.10;0.10;;;15.20;99.90;;;;;;5008849;28;20026;-83
2023/09/15 04:56:34;;;;;;;0.00;0.00;;;15.30;99.90;;;;;;4992333;28;20041;-83
2023/09/15 04:59:00;;;;;;;3.63;1.25;;;15.40;99.90;;;;;;5010422;28;20022;-82
2023/09/15 05:01:26;;;;;;;0.00;0.00;;;15.30;99.90;;;;;;5008569;28;20432;-82
2023/09/15 05:03:52;;;;;;;0.00;0.00;;;15.10;99.90;;;;;;5008801;28;20083;-82
2023/09/15 05:06:18;;;;;;;1.05;1.00;;;15.10;99.90;;;;;;5008625;28;20405;-83
2023/09/15 05:08:45;;;;;;;1.00;0.85;;;15.10;99.90;;;;;;5008464;28;20026;-83
2023/09/15 05:11:10;;;;;;;0.00;0.00;;;15.10;99.90;;;;;;5008930;28;20026;-73
2023/09/15 05:13:36;;;;;;;0.40;0.40;;;15.10;99.90;;;;;;5008740;28;20493;-83
2023/09/15 05:16:03;;;;;;;0.00;0.00;;;15.10;99.90;;;;;;5008326;28;20075;-83
2023/09/15 05:18:30;;;;;;;0.15;0.15;;;15.20;99.90;;;;;;5009424;28;20689;-75
2023/09/15 05:20:56;;;;;;;6.68;1.65;;;15.20;99.90;;;;;;5046749;28;20018;-83
2023/09/15 05:23:22;;;;;;;0.00;0.00;;;15.30;99.90;;;;;;5034889;28;20046;-82
2023/09/15 05:25:53;;;;;;;0.00;0.00;;;15.20;99.90;;;;;;5026445;28;20115;-82
2023/09/15 05:28:22;;;;;;;0.40;0.40;;;15.20;99.90;;;;;;5055605;28;20093;-83
2023/09/15 05:30:48;;;;;;;0.00;0.00;;;15.20;99.90;;;;;;5055147;28;20038;-81
2023/09/15 05:33:16;;;;;;;0.00;0.00;;;15.20;99.90;;;;;;5037282;28;20037;-82
2023/09/15 05:35:43;;;;;;;0.10;0.10;;;15.40;99.90;;;;;;5021841;28;20392;-83
2023/09/15 05:38:09;;;;;;;0.10;0.10;;;15.30;99.90;;;;;;5022430;28;20030;-82
2023/09/15 05:40:34;;;;;;;0.00;0.00;;;15.10;99.90;;;;;;5064495;28;20396;-82
2023/09/15 05:43:03;;;;;;;0.00;0.00;;;15.00;99.90;;;;;;5078265;28;20063;-83
2023/09/15 05:45:28;;;;;;;0.00;0.00;;;15.10;99.90;;;;;;5064704;28;20117;-82
2023/09/15 05:47:55;;;;;;;0.10;0.10;;;15.20;99.90;;;;;;5051367;28;20023;-79
2023/09/15 05:50:21;;;;;;;0.05;0.05;;;15.10;99.90;;;;;;5015676;28;20030;-83
2023/09/15 05:52:47;;;;;;;1.35;0.65;;;15.20;99.90;;;;;;5076483;28;20049;-80
2023/09/15 05:55:13;;;;;;;0.00;0.00;;;15.20;99.90;;;;;;5066265;28;20459;-84
2023/09/15 05:57:39;;;;;;;1.17;1.17;;;15.20;99.90;;;;;;5071538;28;20113;-82
2023/09/15 06:00:05;;;;;;;0.00;0.00;;;15.20;99.90;;;;;;5039011;28;20109;-84
2023/09/15 06:02:37;;;;;;;0.00;0.00;;;15.30;99.90;;;;;;5015187;28;20046;-82
2023/09/15 06:05:03;;;;;;;0.00;0.00;;;15.40;99.90;;;;;;5075408;28;20132;-84
2023/09/15 06:07:29;;;;;;;0.00;0.00;;;15.40;99.90;;;;;;5073037;28;20046;-84
2023/09/15 06:09:55;;;;;;;0.35;0.35;;;15.50;99.90;;;;;;5063726;28;20061;-84
2023/09/15 06:12:21;;;;;;;0.00;0.00;;;15.70;99.90;;;;;;5023243;28;20040;-84
2023/09/15 06:14:47;;;;;;;0.00;0.00;;;15.80;99.90;;;;;;5077648;28;20102;-83
2023/09/15 06:17:12;;;;;;;0.10;0.10;;;15.90;99.90;;;;;;5063883;27;20018;-85
2023/09/15 06:19:38;;;;;;;0.10;0.10;;;15.80;99.90;;;;;;5043084;28;20559;-84
2023/09/15 06:22:05;;;;;;;0.00;0.00;;;15.80;99.90;;;;;;5052784;28;20497;-84
2023/09/15 06:24:30;;;;;;;0.00;0.00;;;15.90;99.90;;;;;;5019909;28;20105;-84
2023/09/15 06:26:56;;;;;;;0.13;0.13;;;15.90;99.90;;;;;;5080682;28;20444;-84
2023/09/15 06:29:22;;;;;;;0.10;0.10;;;16.00;99.90;;;;;;5072582;28;20482;-84
2023/09/15 06:31:48;;;;;;;0.00;0.00;;;16.10;99.90;;;;;;5047852;28;20391;-75
2023/09/15 06:34:13;;;;;;;0.93;0.85;;;16.20;99.90;;;;;;5028903;28;20401;-83
2023/09/15 06:36:39;;;;;;;0.05;0.05;;;16.30;99.90;;;;;;5035777;28;20037;-84
2023/09/15 06:39:07;;;;;;;0.00;0.00;;;16.40;99.90;;;;;;5023026;28;20020;-83
2023/09/15 06:41:33;;;;;;;0.00;0.00;;;16.50;99.90;;;;;;5096252;28;20068;-83
2023/09/15 06:43:59;;;;;;;0.00;0.00;;;16.70;99.90;;;;;;5088312;28;20048;-85
2023/09/15 06:46:26;;;;;;;0.00;0.00;;;16.70;99.90;;;;;;5056896;28;20029;-83
2023/09/15 06:48:52;;;;;;;0.63;0.63;;;16.60;99.90;;;;;;5030359;28;20034;-81
2023/09/15 06:51:18;;;;;;;2.20;2.05;;;16.70;99.90;;;;;;5017417;28;20067;-83
2023/09/15 06:53:45;;;;;;;0.00;0.00;;;16.70;99.90;;;;;;5096865;28;20028;-79
2023/09/15 06:56:11;;;;;;;0.08;0.08;;;16.80;99.90;;;;;;5083892;28;20130;-82
2023/09/15 06:58:36;;;;;;;0.10;0.10;;;16.60;99.90;;;;;;5040181;28;20573;-83
2023/09/15 07:01:04;;;;;;;0.00;0.00;;;16.90;99.90;;;;;;5027672;28;20501;-81
2023/09/15 07:03:29;;;;;;;0.10;0.10;;;17.00;99.90;;;;;;5025515;28;20030;-84
2023/09/15 07:05:55;;;;;;;0.00;0.00;;;17.20;99.90;;;;;;5091927;28;20047;-82
2023/09/15 07:08:21;;;;;;;0.00;0.00;;;17.20;99.90;;;;;;5069862;28;20099;-84
2023/09/15 07:10:51;;;;;;;0.10;0.10;;;17.20;99.90;;;;;;5034876;28;20030;-83
2023/09/15 07:13:18;;;;;;;0.00;0.00;;;17.30;99.90;;;;;;5007604;28;20072;-78
2023/09/15 07:15:44;;;;;;;0.00;0.00;;;17.30;99.90;;;;;;5101034;28;20034;-84
2023/09/15 07:18:10;;;;;;;0.00;0.00;;;17.60;99.90;;;;;;5073592;28;20030;-85
2023/09/15 07:20:36;;;;;;;0.10;0.10;;;17.50;99.90;;;;;;5044428;28;20083;-84
2023/09/15 07:23:03;;;;;;;0.00;0.00;;;17.70;99.90;;;;;;5032386;28;20021;-86
2023/09/15 07:25:29;;;;;;;0.05;0.05;;;18.00;99.90;;;;;;5029436;28;20033;-73
2023/09/15 07:27:55;;;;;;;0.00;0.00;;;18.00;99.90;;;;;;5037664;28;20025;-74
2023/09/15 07:30:21;;;;;;;0.00;0.00;;;18.00;99.90;;;;;;5054431;28;20059;-73
2023/09/15 07:32:47;;;;;;;0.00;0.00;;;18.10;99.90;;;;;;5040324;28;20036;-73
2023/09/15 07:35:14;;;;;;;0.00;0.00;;;18.50;99.90;;;;;;5009874;28;20112;-75
2023/09/15 07:37:41;;;;;;;1.50;1.40;;;18.40;99.90;;;;;;5015999;28;20369;-75
2023/09/15 07:40:07;;;;;;;0.00;0.00;;;18.30;99.90;;;;;;5028097;28;20073;-73
2023/09/15 07:42:34;;;;;;;1.02;0.95;;;18.40;99.90;;;;;;5016991;28;20508;-74
2023/09/15 07:45:00;;;;;;;0.10;0.10;;;18.40;99.90;;;;;;5056349;28;20018;-73
2023/09/15 07:47:26;;;;;;;0.70;0.70;;;18.20;99.90;;;;;;5051754;28;20452;-73
2023/09/15 07:49:52;;;;;;;1.27;1.00;;;18.50;99.90;;;;;;5018695;27;20118;-73
2023/09/15 07:52:19;;;;;;;1.15;0.75;;;18.70;99.90;;;;;;5055552;28;20552;-73
2023/09/15 07:54:45;;;;;;;0.60;0.60;;;18.50;99.90;;;;;;5048887;28;20026;-73
2023/09/15 07:57:11;;;;;;;0.00;0.00;;;18.60;99.90;;;;;;5031892;28;20018;-73
2023/09/15 07:59:37;;;;;;;0.57;0.57;;;18.80;99.90;;;;;;5054636;28;20055;-73
2023/09/15 08:02:04;;;;;;;0.10;0.10;;;19.10;99.90;;;;;;5011821;28;20041;-73
2023/09/15 08:04:30;;;;;;;2.97;1.80;;;19.40;99.90;;;;;;5063587;28;20023;-85
2023/09/15 08:06:56;;;;;;;4.43;1.05;;;19.30;99.90;;;;;;5065365;28;20386;-86
2023/09/15 08:09:22;;;;;;;0.20;0.20;;;19.50;99.90;;;;;;5050902;28;20428;-73
2023/09/15 08:11:47;;;;;;;1.25;0.98;;;19.60;99.90;;;;;;5037647;28;20026;-73
2023/09/15 08:14:13;;;;;;;0.10;0.10;;;19.50;99.90;;;;;;5051337;28;20027;-75
2023/09/15 08:16:39;;;;;;;0.10;0.10;;;19.70;99.90;;;;;;5094731;28;20037;-73
2023/09/15 08:19:05;;;;;;;0.10;0.10;;;19.80;99.90;;;;;;5034931;28;20022;-73
2023/09/15 08:21:31;;;;;;;0.00;0.00;;;20.00;99.90;;;;;;5053395;28;20113;-74
2023/09/15 08:23:57;;;;;;;1.13;1.00;;;20.10;99.90;;;;;;5023402;28;20409;-73
2023/09/15 08:26:25;;;;;;;0.00;0.00;;;20.30;99.90;;;;;;5059576;28;20024;-74
2023/09/15 08:28:51;;;;;;;0.10;0.10;;;20.50;99.90;;;;;;5079053;28;20022;-73
2023/09/15 08:31:17;;;;;;;2.28;0.65;;;21.00;99.90;;;;;;5052665;28;20033;-73
2023/09/15 08:33:43;;;;;;;0.00;0.00;;;21.10;99.90;;;;;;5056700;28;20049;-73
2023/09/15 08:36:08;;;;;;;0.08;0.08;;;20.80;99.90;;;;;;5050582;28;20402;-73
2023/09/15 08:38:34;;;;;;;0.00;0.00;;;21.00;99.90;;;;;;5020943;28;20030;-74
2023/09/15 08:41:29;;;;;;;0.00;0.00;;;21.20;99.90;;;;;;5080980;28;20620;-73
2023/09/15 08:43:56;;;;;;;0.08;0.08;;;21.50;99.90;;;;;;5028262;28;20019;-73
2023/09/15 08:46:25;;;;;;;0.08;0.08;;;21.70;99.90;;;;;;5056935;28;20520;-85
2023/09/15 08:48:51;;;;;;;0.00;0.00;;;21.80;99.90;;;;;;5029545;28;20026;-73
2023/09/15 08:51:18;;;;;;;0.05;0.05;;;21.60;99.90;;;;;;5019154;28;20034;-74
2023/09/15 08:53:45;;;;;;;0.70;0.43;;;22.20;99.90;;;;;;5036577;28;20024;-77
2023/09/15 08:56:12;;;;;;;1.85;1.15;;;22.10;99.90;;;;;;5082062;28;20035;-73
2023/09/15 08:58:38;;;;;;;0.00;0.00;;;21.90;99.90;;;;;;5039000;28;20026;-86
2023/09/15 09:01:07;;;;;;;0.00;0.00;;;21.90;99.90;;;;;;5025542;28;20037;-83
2023/09/15 09:03:37;;;;;;;0.00;0.00;;;21.80;99.90;;;;;;5024390;28;20060;-73
2023/09/15 09:06:04;;;;;;;0.00;0.00;;;22.10;99.90;;;;;;5090339;28;20031;-82
2023/09/15 09:08:32;;;;;;;0.13;0.13;;;22.60;99.90;;;;;;5061070;28;20053;-84
2023/09/15 09:10:58;;;;;;;2.17;0.90;;;22.40;99.90;;;;;;5034031;28;20045;-74
2023/09/15 09:13:24;;;;;;;0.00;0.00;;;22.40;99.90;;;;;;5028474;28;20113;-76
2023/09/15 09:15:51;;;;;;;0.00;0.00;;;22.80;99.90;;;;;;5063664;28;20103;-81
2023/09/15 09:18:18;;;;;;;0.00;0.00;;;23.20;99.90;;;;;;5020552;28;20521;-79
2023/09/15 09:20:46;;;;;;;0.08;0.08;;;23.50;99.90;;;;;;5042581;28;20026;-88
2023/09/15 09:23:12;;;;;;;0.35;0.35;;;23.30;99.90;;;;;;5028861;28;20355;-75
2023/09/15 09:25:39;;;;;;;2.17;0.75;;;23.10;99.90;;;;;;5033814;28;20034;-75
2023/09/15 09:28:06;;;;;;;2.47;0.55;;;23.00;99.90;;;;;;5016153;28;20403;-80
2023/09/15 09:30:31;;;;;;;0.47;0.47;;;23.50;99.90;;;;;;5032647;28;20111;-74
2023/09/15 09:32:58;;;;;;;0.20;0.20;;;23.40;99.90;;;;;;5020086;28;20494;-84
2023/09/15 09:35:25;;;;;;;0.00;0.00;;;23.40;99.90;;;;;;5057166;28;20108;-88
2023/09/15 09:37:55;;;;;;;0.00;0.00;;;23.30;99.90;;;;;;5039255;28;20034;-79
2023/09/15 09:40:22;;;;;;;0.00;0.00;;;23.20;99.90;;;;;;5060407;28;20422;-85
2023/09/15 09:42:49;;;;;;;0.00;0.00;;;23.20;99.90;;;;;;5045820;28;20034;-73
2023/09/15 09:45:16;;;;;;;1.30;1.20;;;23.20;99.90;;;;;;5058551;28;20033;-86
2023/09/15 09:47:45;;;;;;;2.45;2.25;;;23.10;99.40;;;;;;5063552;28;20097;-87
2023/09/15 09:50:11;;;;;;;0.10;0.10;;;22.90;99.90;;;;;;5018752;28;20029;-74
2023/09/15 09:52:38;;;;;;;0.70;0.25;;;22.80;99.90;;;;;;5070629;28;20032;-81
2023/09/15 09:55:05;;;;;;;0.00;0.00;;;22.90;99.90;;;;;;5070154;28;20045;-83
2023/09/15 09:57:33;;;;;;;0.05;0.05;;;23.20;99.90;;;;;;5049531;28;20029;-86
2023/09/15 09:59:58;;;;;;;0.00;0.00;;;23.70;99.80;;;;;;5022799;28;20030;-81
2023/09/15 10:02:26;;;;;;;0.00;0.00;;;23.60;99.90;;;;;;5008458;28;20033;-77
2023/09/15 10:04:53;;;;;;;0.00;0.00;;;24.00;99.90;;;;;;5027735;28;20038;-79
2023/09/15 10:07:19;;;;;;;0.00;0.00;;;24.70;99.40;;;;;;5018329;28;20058;-79
2023/09/15 10:09:46;;;;;;;0.00;0.00;;;24.60;98.90;;;;;;5039680;28;20383;-84
2023/09/15 10:12:13;;;;;;;0.00;0.00;;;24.40;97.20;;;;;;5022073;28;20026;-81
2023/09/15 10:14:40;;;;;;;0.00;0.00;;;24.30;98.60;;;;;;5031162;28;20022;-74
2023/09/15 10:17:07;;;;;;;0.00;0.00;;;24.70;98.50;;;;;;4987704;28;20071;-74
2023/09/15 10:19:33;;;;;;;0.00;0.00;;;25.10;96.00;;;;;;5047387;28;20030;-74
2023/09/15 10:22:00;;;;;;;0.00;0.00;;;25.40;97.40;;;;;;5046594;28;20095;-74
2023/09/15 10:24:27;;;;;;;1.83;0.95;;;25.60;97.20;;;;;;5010333;28;20039;-73
2023/09/15 10:26:53;;;;;;;0.00;0.00;;;25.60;97.00;;;;;;5042087;28;20037;-90
2023/09/15 10:29:19;;;;;;;0.00;0.00;;;25.50;96.60;;;;;;5032804;28;20030;-74
2023/09/15 10:31:46;;;;;;;0.00;0.00;;;26.20;95.90;;;;;;5028079;28;20239;-79
2023/09/15 10:34:13;;;;;;;5.40;0.70;;;26.00;96.40;;;;;;5050469;28;20024;-79
2023/09/15 10:36:40;;;;;;;0.00;0.00;;;25.30;96.10;;;;;;5026998;28;20037;-79
2023/09/15 10:39:17;;;;;;;0.22;0.22;;;25.70;95.50;;;;;;5009015;28;20383;-73
2023/09/15 10:41:43;;;;;;;0.15;0.15;;;25.00;96.70;;;;;;5018499;28;20024;-73
2023/09/15 10:44:10;;;;;;;0.00;0.00;;;24.90;96.20;;;;;;5045584;28;20044;-74
2023/09/15 10:46:38;;;;;;;0.00;0.00;;;24.90;97.40;;;;;;5016496;28;20436;-79
2023/09/15 10:49:20;;;;;;;0.20;0.20;;;24.40;98.20;;;;;;5025469;28;20038;-73
2023/09/15 10:52:00;;;;;;;0.00;0.00;;;23.60;98.00;;;;;;5007970;28;20470;-70
2023/09/15 10:54:30;;;;;;;0.05;0.05;;;23.60;99.40;;;;;;4994861;28;20022;-71
2023/09/15 10:56:57;;;;;;;0.33;0.33;;;23.80;99.90;;;;;;5005033;28;20026;-71
2023/09/15 10:59:25;;;;;;;0.00;0.00;;;23.80;99.40;;;;;;4998141;28;20379;-71
2023/09/15 11:01:51;;;;;;;0.30;0.30;;;24.40;98.60;;;;;;5009784;28;20034;-71
2023/09/15 11:04:22;;;;;;;0.10;0.10;;;24.90;98.30;;;;;;5002536;28;20022;-75
2023/09/15 11:06:50;;;;;;;0.00;0.00;;;25.40;96.50;;;;;;5009759;28;20401;-71
2023/09/15 11:09:17;;;;;;;0.00;0.00;;;26.00;96.00;;;;;;4994318;28;20022;-71
2023/09/15 11:11:45;;;;;;;0.00;0.00;;;26.10;95.60;;;;;;4994798;28;20034;-72
2023/09/15 11:14:21;;;;;;;0.00;0.00;;;26.00;94.70;;;;;;5007506;28;20033;-71
2023/09/15 11:16:49;;;;;;;0.93;0.43;;;26.30;95.30;;;;;;5008403;28;20061;-71
2023/09/15 11:19:17;;;;;;;0.08;0.08;;;25.90;94.00;;;;;;5010152;28;20018;-85
2023/09/15 11:21:47;;;;;;;0.00;0.00;;;25.80;94.30;;;;;;5005950;28;20043;-71
2023/09/15 11:24:13;;;;;;;0.45;0.45;;;26.30;94.80;;;;;;4998005;28;20464;-72
2023/09/15 11:26:49;;;;;;;0.20;0.20;;;26.30;93.60;;;;;;5006018;28;20040;-71
2023/09/15 11:29:16;;;;;;;0.00;0.00;;;26.10;93.50;;;;;;5005235;28;20105;-71
2023/09/15 11:31:44;;;;;;;0.00;0.00;;;26.00;93.60;;;;;;4999878;28;20042;-71
2023/09/15 11:34:13;;;;;;;0.00;0.00;;;26.80;92.40;;;;;;5009780;28;20059;-71
2023/09/15 11:36:41;;;;;;;0.00;0.00;;;27.00;92.90;;;;;;5010481;28;20026;-71
2023/09/15 11:39:10;;;;;;;0.00;0.00;;;27.90;92.80;;;;;;5011560;28;20026;-71
2023/09/15 11:41:49;;;;;;;0.00;0.00;;;28.10;92.40;;;;;;5010832;28;20030;-87
2023/09/15 11:44:15;;;;;;;0.00;0.00;;;27.70;92.10;;;;;;5011154;28;20490;-71
2023/09/15 11:46:42;;;;;;;0.20;0.20;;;28.40;90.80;;;;;;5010727;28;20120;-74
2023/09/15 11:49:10;;;;;;;0.10;0.10;;;28.90;87.70;;;;;;5010241;28;20041;-71
2023/09/15 11:51:37;;;;;;;0.13;0.13;;;28.10;88.20;;;;;;5009702;28;20026;-72
2023/09/15 11:54:04;;;;;;;0.00;0.00;;;27.80;89.00;;;;;;5010911;28;20025;-84
2023/09/15 11:56:33;;;;;;;0.00;0.00;;;27.70;87.20;;;;;;5010475;28;20329;-76
2023/09/15 11:58:59;;;;;;;0.00;0.00;;;28.10;89.50;;;;;;5011174;28;20018;-71
2023/09/15 12:01:27;;;;;;;0.00;0.00;;;28.70;87.50;;;;;;5010585;28;20029;-72
2023/09/15 12:03:53;;;;;;;0.00;0.00;;;29.70;84.60;;;;;;5010978;28;20519;-81
2023/09/15 12:06:20;;;;;;;0.30;0.25;;;29.90;84.80;;;;;;5010734;28;20398;-72
2023/09/15 12:08:50;;;;;;;0.00;0.00;;;30.10;82.60;;;;;;5010671;28;20028;-72
2023/09/15 12:11:17;;;;;;;0.00;0.00;;;30.20;81.90;;;;;;5010683;28;20036;-89
2023/09/15 12:13:43;;;;;;;0.00;0.00;;;29.80;81.00;;;;;;5010416;28;20287;-72
2023/09/15 12:16:21;;;;;;;0.00;0.00;;;30.40;81.50;;;;;;5010581;28;20049;-81
2023/09/15 12:18:49;;;;;;;0.00;0.00;;;31.50;82.40;;;;;;5009245;28;20410;-71
2023/09/15 12:21:15;;;;;;;0.15;0.13;;;32.30;78.00;;;;;;5010561;28;20466;-85
2023/09/15 12:23:42;;;;;;;0.10;0.10;;;31.30;80.60;;;;;;5010430;28;20018;-74
2023/09/15 12:26:09;;;;;;;0.00;0.00;;;31.10;81.50;;;;;;5010199;28;20034;-72
2023/09/15 12:28:35;;;;;;;0.10;0.10;;;31.50;80.20;;;;;;5010429;28;20033;-72
2023/09/15 12:31:01;;;;;;;0.00;0.00;;;32.50;77.20;;;;;;5011152;28;20022;-89
2023/09/15 12:33:29;;;;;;;0.10;0.10;;;31.90;76.10;;;;;;5010431;28;20038;-72
2023/09/15 12:35:58;;;;;;;0.10;0.10;;;31.80;75.40;;;;;;4992510;28;20021;-70
2023/09/15 12:38:24;;;;;;;0.00;0.00;;;31.90;77.00;;;;;;5009924;28;20037;-72
2023/09/15 12:40:50;;;;;;;1.88;0.35;;;34.00;75.20;;;;;;5010182;28;20027;-71
2023/09/15 12:43:16;;;;;;;0.00;0.00;;;32.60;71.20;;;;;;5010224;28;20022;-72
2023/09/15 12:45:42;;;;;;;0.00;0.00;;;31.60;72.50;;;;;;5010323;28;20132;-71
2023/09/15 12:48:09;;;;;;;0.10;0.10;;;31.60;72.70;;;;;;5010015;28;20097;-72
2023/09/15 12:50:35;;;;;;;0.10;0.10;;;32.40;72.90;;;;;;5010461;28;20037;-85